sensor_id;sensor_type;location;lat;lon;timestamp;P1;durP1;ratioP1;P2;durP2;ratioP2
12437;SDS011;6283;51.330;12.374;2024-01-30T00:01:40;3.30;;;2.87;;
12437;SDS011;6283;51.330;12.374;2024-01-30T00:04:06;6.47;;;3.60;;
12437;SDS011;6283;51.330;12.374;2024-01-30T00:06:32;7.27;;;3.50;;
12437;SDS011;6283;51.330;12.374;2024-01-30T00:08:57;5.63;;;3.20;;
12437;SDS011;6283;51.330;12.374;2024-01-30T00:11:23;5.03;;;3.07;;
12437;SDS011;6283;51.330;12.374;2024-01-30T00:13:50;4.57;;;3.37;;
12437;SDS011;6283;51.330;12.374;2024-01-30T00:16:20;3.20;;;2.70;;
12437;SDS011;6283;51.330;12.374;2024-01-30T00:18:46;3.97;;;2.87;;
12437;SDS011;6283;51.330;12.374;2024-01-30T00:21:12;3.70;;;3.13;;
12437;SDS011;6283;51.330;12.374;2024-01-30T00:23:38;5.53;;;2.90;;
12437;SDS011;6283;51.330;12.374;2024-01-30T00:26:03;5.27;;;3.00;;
12437;SDS011;6283;51.330;12.374;2024-01-30T00:28:30;6.43;;;3.13;;
12437;SDS011;6283;51.330;12.374;2024-01-30T00:30:56;4.83;;;2.87;;
12437;SDS011;6283;51.330;12.374;2024-01-30T00:33:21;5.53;;;3.00;;
12437;SDS011;6283;51.330;12.374;2024-01-30T00:35:47;4.63;;;3.20;;
12437;SDS011;6283;51.330;12.374;2024-01-30T00:38:12;4.00;;;2.90;;
12437;SDS011;6283;51.330;12.374;2024-01-30T00:40:38;4.07;;;3.20;;
12437;SDS011;6283;51.330;12.374;2024-01-30T00:43:04;4.80;;;3.10;;
12437;SDS011;6283;51.330;12.374;2024-01-30T00:45:29;6.47;;;2.97;;
12437;SDS011;6283;51.330;12.374;2024-01-30T00:47:55;4.60;;;3.10;;
12437;SDS011;6283;51.330;12.374;2024-01-30T00:50:20;5.57;;;2.70;;
12437;SDS011;6283;51.330;12.374;2024-01-30T00:52:46;4.53;;;2.70;;
12437;SDS011;6283;51.330;12.374;2024-01-30T00:55:11;4.37;;;2.90;;
12437;SDS011;6283;51.330;12.374;2024-01-30T00:57:37;6.70;;;2.83;;
12437;SDS011;6283;51.330;12.374;2024-01-30T01:00:03;3.83;;;2.77;;
12437;SDS011;6283;51.330;12.374;2024-01-30T01:02:31;4.57;;;2.60;;
12437;SDS011;6283;51.330;12.374;2024-01-30T01:04:57;3.53;;;2.50;;
12437;SDS011;6283;51.330;12.374;2024-01-30T01:07:22;3.37;;;2.70;;
12437;SDS011;6283;51.330;12.374;2024-01-30T01:09:48;3.67;;;2.90;;
12437;SDS011;6283;51.330;12.374;2024-01-30T01:12:13;4.63;;;2.90;;
12437;SDS011;6283;51.330;12.374;2024-01-30T01:14:39;3.17;;;2.73;;
12437;SDS011;6283;51.330;12.374;2024-01-30T01:17:05;5.43;;;2.97;;
12437;SDS011;6283;51.330;12.374;2024-01-30T01:19:30;3.87;;;2.87;;
12437;SDS011;6283;51.330;12.374;2024-01-30T01:21:56;4.30;;;2.87;;
12437;SDS011;6283;51.330;12.374;2024-01-30T01:24:22;4.70;;;3.03;;
12437;SDS011;6283;51.330;12.374;2024-01-30T01:26:47;2.90;;;2.70;;
12437;SDS011;6283;51.330;12.374;2024-01-30T01:29:13;5.87;;;3.13;;
12437;SDS011;6283;51.330;12.374;2024-01-30T01:31:38;5.10;;;3.43;;
12437;SDS011;6283;51.330;12.374;2024-01-30T01:34:09;4.73;;;3.07;;
12437;SDS011;6283;51.330;12.374;2024-01-30T01:36:35;5.13;;;2.70;;
12437;SDS011;6283;51.330;12.374;2024-01-30T01:39:01;4.30;;;3.10;;
12437;SDS011;6283;51.330;12.374;2024-01-30T01:41:29;4.47;;;2.97;;
12437;SDS011;6283;51.330;12.374;2024-01-30T01:43:56;3.90;;;2.70;;
12437;SDS011;6283;51.330;12.374;2024-01-30T01:46:22;4.93;;;3.10;;
12437;SDS011;6283;51.330;12.374;2024-01-30T01:48:48;5.10;;;2.73;;
12437;SDS011;6283;51.330;12.374;2024-01-30T01:51:15;3.73;;;2.90;;
12437;SDS011;6283;51.330;12.374;2024-01-30T01:53:41;4.57;;;2.90;;
12437;SDS011;6283;51.330;12.374;2024-01-30T01:56:07;3.87;;;3.07;;
12437;SDS011;6283;51.330;12.374;2024-01-30T01:58:33;4.20;;;2.90;;
12437;SDS011;6283;51.330;12.374;2024-01-30T02:00:58;6.03;;;3.00;;
12437;SDS011;6283;51.330;12.374;2024-01-30T02:03:24;3.43;;;2.80;;
12437;SDS011;6283;51.330;12.374;2024-01-30T02:05:50;4.67;;;2.67;;
12437;SDS011;6283;51.330;12.374;2024-01-30T02:08:16;4.17;;;2.67;;
12437;SDS011;6283;51.330;12.374;2024-01-30T02:10:42;6.13;;;3.00;;
12437;SDS011;6283;51.330;12.374;2024-01-30T02:13:07;8.40;;;3.33;;
12437;SDS011;6283;51.330;12.374;2024-01-30T02:15:33;4.70;;;3.03;;
12437;SDS011;6283;51.330;12.374;2024-01-30T02:17:58;3.40;;;2.57;;
12437;SDS011;6283;51.330;12.374;2024-01-30T02:20:24;5.87;;;3.47;;
12437;SDS011;6283;51.330;12.374;2024-01-30T02:22:52;4.83;;;3.13;;
12437;SDS011;6283;51.330;12.374;2024-01-30T02:25:29;5.13;;;3.00;;
12437;SDS011;6283;51.330;12.374;2024-01-30T02:27:56;4.93;;;3.17;;
12437;SDS011;6283;51.330;12.374;2024-01-30T02:30:21;6.23;;;3.27;;
12437;SDS011;6283;51.330;12.374;2024-01-30T02:32:47;5.37;;;3.10;;
12437;SDS011;6283;51.330;12.374;2024-01-30T02:35:12;4.33;;;3.33;;
12437;SDS011;6283;51.330;12.374;2024-01-30T02:37:38;6.80;;;3.20;;
12437;SDS011;6283;51.330;12.374;2024-01-30T02:40:04;5.37;;;3.60;;
12437;SDS011;6283;51.330;12.374;2024-01-30T02:42:30;5.80;;;3.47;;
12437;SDS011;6283;51.330;12.374;2024-01-30T02:44:55;4.83;;;3.27;;
12437;SDS011;6283;51.330;12.374;2024-01-30T02:47:21;4.93;;;3.53;;
12437;SDS011;6283;51.330;12.374;2024-01-30T02:49:47;7.80;;;3.50;;
12437;SDS011;6283;51.330;12.374;2024-01-30T02:52:12;4.90;;;3.20;;
12437;SDS011;6283;51.330;12.374;2024-01-30T02:54:38;4.83;;;3.20;;
12437;SDS011;6283;51.330;12.374;2024-01-30T02:57:03;4.50;;;3.10;;
12437;SDS011;6283;51.330;12.374;2024-01-30T02:59:29;4.40;;;3.03;;
12437;SDS011;6283;51.330;12.374;2024-01-30T03:01:55;3.87;;;2.90;;
12437;SDS011;6283;51.330;12.374;2024-01-30T03:04:20;7.30;;;3.03;;
12437;SDS011;6283;51.330;12.374;2024-01-30T03:06:46;7.27;;;3.57;;
12437;SDS011;6283;51.330;12.374;2024-01-30T03:09:21;4.87;;;3.30;;
12437;SDS011;6283;51.330;12.374;2024-01-30T03:11:47;4.93;;;3.83;;
12437;SDS011;6283;51.330;12.374;2024-01-30T03:14:12;4.90;;;3.23;;
12437;SDS011;6283;51.330;12.374;2024-01-30T03:16:38;4.53;;;2.90;;
12437;SDS011;6283;51.330;12.374;2024-01-30T03:19:05;4.20;;;3.23;;
12437;SDS011;6283;51.330;12.374;2024-01-30T03:21:32;4.10;;;3.00;;
12437;SDS011;6283;51.330;12.374;2024-01-30T03:23:58;4.17;;;3.43;;
12437;SDS011;6283;51.330;12.374;2024-01-30T03:26:24;4.13;;;3.30;;
12437;SDS011;6283;51.330;12.374;2024-01-30T03:28:50;8.13;;;3.70;;
12437;SDS011;6283;51.330;12.374;2024-01-30T03:31:15;4.53;;;3.30;;
12437;SDS011;6283;51.330;12.374;2024-01-30T03:33:41;6.93;;;3.10;;
12437;SDS011;6283;51.330;12.374;2024-01-30T03:36:07;4.87;;;3.37;;
12437;SDS011;6283;51.330;12.374;2024-01-30T03:38:33;3.87;;;2.97;;
12437;SDS011;6283;51.330;12.374;2024-01-30T03:40:59;4.70;;;3.73;;
12437;SDS011;6283;51.330;12.374;2024-01-30T03:43:25;6.13;;;3.27;;
12437;SDS011;6283;51.330;12.374;2024-01-30T03:45:51;5.43;;;3.30;;
12437;SDS011;6283;51.330;12.374;2024-01-30T03:48:17;5.43;;;3.20;;
12437;SDS011;6283;51.330;12.374;2024-01-30T03:50:42;7.97;;;3.33;;
12437;SDS011;6283;51.330;12.374;2024-01-30T03:53:08;9.63;;;3.33;;
12437;SDS011;6283;51.330;12.374;2024-01-30T03:55:34;7.43;;;3.70;;
12437;SDS011;6283;51.330;12.374;2024-01-30T03:57:59;5.43;;;3.53;;
12437;SDS011;6283;51.330;12.374;2024-01-30T04:00:25;6.00;;;3.70;;
12437;SDS011;6283;51.330;12.374;2024-01-30T04:02:50;5.10;;;3.70;;
12437;SDS011;6283;51.330;12.374;2024-01-30T04:05:16;4.90;;;3.57;;
12437;SDS011;6283;51.330;12.374;2024-01-30T04:07:42;7.30;;;3.73;;
12437;SDS011;6283;51.330;12.374;2024-01-30T04:10:08;4.47;;;3.13;;
12437;SDS011;6283;51.330;12.374;2024-01-30T04:12:35;5.27;;;3.30;;
12437;SDS011;6283;51.330;12.374;2024-01-30T04:15:01;6.30;;;4.03;;
12437;SDS011;6283;51.330;12.374;2024-01-30T04:17:27;5.83;;;3.53;;
12437;SDS011;6283;51.330;12.374;2024-01-30T04:19:54;5.23;;;3.27;;
12437;SDS011;6283;51.330;12.374;2024-01-30T04:22:19;7.90;;;3.60;;
12437;SDS011;6283;51.330;12.374;2024-01-30T04:24:45;7.03;;;3.47;;
12437;SDS011;6283;51.330;12.374;2024-01-30T04:27:11;4.00;;;3.10;;
12437;SDS011;6283;51.330;12.374;2024-01-30T04:29:36;5.50;;;3.50;;
12437;SDS011;6283;51.330;12.374;2024-01-30T04:32:02;6.20;;;3.40;;
12437;SDS011;6283;51.330;12.374;2024-01-30T04:34:27;5.07;;;3.77;;
12437;SDS011;6283;51.330;12.374;2024-01-30T04:36:53;5.53;;;3.67;;
12437;SDS011;6283;51.330;12.374;2024-01-30T04:39:19;6.00;;;3.80;;
12437;SDS011;6283;51.330;12.374;2024-01-30T04:41:44;7.17;;;3.57;;
12437;SDS011;6283;51.330;12.374;2024-01-30T04:44:10;5.50;;;3.77;;
12437;SDS011;6283;51.330;12.374;2024-01-30T04:46:35;7.00;;;3.93;;
12437;SDS011;6283;51.330;12.374;2024-01-30T04:49:01;5.63;;;3.87;;
12437;SDS011;6283;51.330;12.374;2024-01-30T04:51:28;5.63;;;3.57;;
12437;SDS011;6283;51.330;12.374;2024-01-30T04:53:54;5.27;;;3.33;;
12437;SDS011;6283;51.330;12.374;2024-01-30T04:56:20;7.47;;;3.90;;
12437;SDS011;6283;51.330;12.374;2024-01-30T04:58:46;5.83;;;3.63;;
12437;SDS011;6283;51.330;12.374;2024-01-30T05:01:14;6.17;;;3.80;;
12437;SDS011;6283;51.330;12.374;2024-01-30T05:03:43;6.10;;;3.30;;
12437;SDS011;6283;51.330;12.374;2024-01-30T05:06:09;4.43;;;3.30;;
12437;SDS011;6283;51.330;12.374;2024-01-30T05:08:35;6.47;;;3.47;;
12437;SDS011;6283;51.330;12.374;2024-01-30T05:11:02;6.57;;;3.47;;
12437;SDS011;6283;51.330;12.374;2024-01-30T05:13:31;4.37;;;3.30;;
12437;SDS011;6283;51.330;12.374;2024-01-30T05:15:56;5.47;;;3.63;;
12437;SDS011;6283;51.330;12.374;2024-01-30T05:18:22;6.70;;;4.07;;
12437;SDS011;6283;51.330;12.374;2024-01-30T05:20:49;5.27;;;3.80;;
12437;SDS011;6283;51.330;12.374;2024-01-30T05:23:15;7.10;;;3.90;;
12437;SDS011;6283;51.330;12.374;2024-01-30T05:25:41;5.50;;;3.40;;
12437;SDS011;6283;51.330;12.374;2024-01-30T05:28:06;6.53;;;3.90;;
12437;SDS011;6283;51.330;12.374;2024-01-30T05:30:32;4.87;;;3.53;;
12437;SDS011;6283;51.330;12.374;2024-01-30T05:32:58;5.97;;;3.30;;
12437;SDS011;6283;51.330;12.374;2024-01-30T05:35:23;6.23;;;3.70;;
12437;SDS011;6283;51.330;12.374;2024-01-30T05:37:49;6.40;;;3.80;;
12437;SDS011;6283;51.330;12.374;2024-01-30T05:40:15;3.90;;;3.00;;
12437;SDS011;6283;51.330;12.374;2024-01-30T05:42:41;7.50;;;3.30;;
12437;SDS011;6283;51.330;12.374;2024-01-30T05:45:06;4.97;;;3.20;;
12437;SDS011;6283;51.330;12.374;2024-01-30T05:47:33;6.80;;;3.80;;
12437;SDS011;6283;51.330;12.374;2024-01-30T05:49:59;6.47;;;3.50;;
12437;SDS011;6283;51.330;12.374;2024-01-30T05:52:25;5.10;;;3.10;;
12437;SDS011;6283;51.330;12.374;2024-01-30T05:54:50;6.63;;;3.70;;
12437;SDS011;6283;51.330;12.374;2024-01-30T05:57:16;6.70;;;3.93;;
12437;SDS011;6283;51.330;12.374;2024-01-30T05:59:42;6.07;;;3.77;;
12437;SDS011;6283;51.330;12.374;2024-01-30T06:02:12;5.07;;;3.60;;
12437;SDS011;6283;51.330;12.374;2024-01-30T06:04:38;6.73;;;3.77;;
12437;SDS011;6283;51.330;12.374;2024-01-30T06:07:04;5.03;;;3.33;;
12437;SDS011;6283;51.330;12.374;2024-01-30T06:09:31;6.73;;;3.87;;
12437;SDS011;6283;51.330;12.374;2024-01-30T06:11:57;7.40;;;4.07;;
12437;SDS011;6283;51.330;12.374;2024-01-30T06:14:22;5.47;;;3.70;;
12437;SDS011;6283;51.330;12.374;2024-01-30T06:16:48;5.90;;;3.50;;
12437;SDS011;6283;51.330;12.374;2024-01-30T06:19:14;8.50;;;4.10;;
12437;SDS011;6283;51.330;12.374;2024-01-30T06:21:40;5.20;;;3.47;;
12437;SDS011;6283;51.330;12.374;2024-01-30T06:24:06;6.03;;;3.80;;
12437;SDS011;6283;51.330;12.374;2024-01-30T06:26:31;6.30;;;3.83;;
12437;SDS011;6283;51.330;12.374;2024-01-30T06:28:57;7.50;;;3.90;;
12437;SDS011;6283;51.330;12.374;2024-01-30T06:31:23;4.73;;;3.50;;
12437;SDS011;6283;51.330;12.374;2024-01-30T06:33:49;5.93;;;3.80;;
12437;SDS011;6283;51.330;12.374;2024-01-30T06:36:15;5.63;;;4.00;;
12437;SDS011;6283;51.330;12.374;2024-01-30T06:38:41;9.87;;;5.03;;
12437;SDS011;6283;51.330;12.374;2024-01-30T06:41:07;6.70;;;3.83;;
12437;SDS011;6283;51.330;12.374;2024-01-30T06:43:32;7.03;;;3.93;;
12437;SDS011;6283;51.330;12.374;2024-01-30T06:45:58;6.30;;;4.07;;
12437;SDS011;6283;51.330;12.374;2024-01-30T06:48:24;7.07;;;4.73;;
12437;SDS011;6283;51.330;12.374;2024-01-30T06:50:52;5.77;;;4.07;;
12437;SDS011;6283;51.330;12.374;2024-01-30T06:53:18;4.03;;;3.50;;
12437;SDS011;6283;51.330;12.374;2024-01-30T06:55:44;6.87;;;4.23;;
12437;SDS011;6283;51.330;12.374;2024-01-30T06:58:10;6.87;;;3.90;;
12437;SDS011;6283;51.330;12.374;2024-01-30T07:00:36;11.70;;;4.83;;
12437;SDS011;6283;51.330;12.374;2024-01-30T07:03:01;8.67;;;4.10;;
12437;SDS011;6283;51.330;12.374;2024-01-30T07:05:27;8.10;;;4.80;;
12437;SDS011;6283;51.330;12.374;2024-01-30T07:07:53;9.50;;;4.73;;
12437;SDS011;6283;51.330;12.374;2024-01-30T07:10:18;6.93;;;4.20;;
12437;SDS011;6283;51.330;12.374;2024-01-30T07:12:44;8.50;;;4.60;;
12437;SDS011;6283;51.330;12.374;2024-01-30T07:15:10;7.33;;;4.10;;
12437;SDS011;6283;51.330;12.374;2024-01-30T07:17:35;5.50;;;3.60;;
12437;SDS011;6283;51.330;12.374;2024-01-30T07:20:01;6.53;;;4.03;;
12437;SDS011;6283;51.330;12.374;2024-01-30T07:22:28;5.40;;;3.93;;
12437;SDS011;6283;51.330;12.374;2024-01-30T07:24:55;12.00;;;4.90;;
12437;SDS011;6283;51.330;12.374;2024-01-30T07:27:20;6.67;;;4.43;;
12437;SDS011;6283;51.330;12.374;2024-01-30T07:29:46;7.53;;;3.77;;
12437;SDS011;6283;51.330;12.374;2024-01-30T07:32:12;8.43;;;4.13;;
12437;SDS011;6283;51.330;12.374;2024-01-30T07:34:38;7.17;;;4.03;;
12437;SDS011;6283;51.330;12.374;2024-01-30T07:37:03;8.17;;;3.97;;
12437;SDS011;6283;51.330;12.374;2024-01-30T07:39:29;9.27;;;4.30;;
12437;SDS011;6283;51.330;12.374;2024-01-30T07:41:54;9.57;;;4.23;;
12437;SDS011;6283;51.330;12.374;2024-01-30T07:44:20;9.43;;;4.13;;
12437;SDS011;6283;51.330;12.374;2024-01-30T07:46:46;7.53;;;4.13;;
12437;SDS011;6283;51.330;12.374;2024-01-30T07:49:11;6.53;;;4.60;;
12437;SDS011;6283;51.330;12.374;2024-01-30T07:51:39;7.97;;;3.97;;
12437;SDS011;6283;51.330;12.374;2024-01-30T07:54:04;9.27;;;4.33;;
12437;SDS011;6283;51.330;12.374;2024-01-30T07:56:30;6.27;;;4.37;;
12437;SDS011;6283;51.330;12.374;2024-01-30T07:58:56;6.00;;;3.97;;
12437;SDS011;6283;51.330;12.374;2024-01-30T08:01:21;6.27;;;4.23;;
12437;SDS011;6283;51.330;12.374;2024-01-30T08:03:47;8.03;;;3.97;;
12437;SDS011;6283;51.330;12.374;2024-01-30T08:06:12;6.67;;;3.90;;
12437;SDS011;6283;51.330;12.374;2024-01-30T08:08:39;5.83;;;4.10;;
12437;SDS011;6283;51.330;12.374;2024-01-30T08:11:04;11.37;;;4.00;;
12437;SDS011;6283;51.330;12.374;2024-01-30T08:13:30;6.07;;;3.60;;
12437;SDS011;6283;51.330;12.374;2024-01-30T08:15:56;8.57;;;4.27;;
12437;SDS011;6283;51.330;12.374;2024-01-30T08:18:21;7.90;;;4.37;;
12437;SDS011;6283;51.330;12.374;2024-01-30T08:20:47;10.57;;;3.90;;
12437;SDS011;6283;51.330;12.374;2024-01-30T08:23:14;6.63;;;4.37;;
12437;SDS011;6283;51.330;12.374;2024-01-30T08:25:39;7.27;;;3.40;;
12437;SDS011;6283;51.330;12.374;2024-01-30T08:28:05;6.30;;;4.13;;
12437;SDS011;6283;51.330;12.374;2024-01-30T08:30:32;6.53;;;4.10;;
12437;SDS011;6283;51.330;12.374;2024-01-30T08:32:57;6.40;;;4.13;;
12437;SDS011;6283;51.330;12.374;2024-01-30T08:35:23;6.33;;;4.43;;
12437;SDS011;6283;51.330;12.374;2024-01-30T08:37:49;8.47;;;4.33;;
12437;SDS011;6283;51.330;12.374;2024-01-30T08:40:14;7.13;;;4.50;;
12437;SDS011;6283;51.330;12.374;2024-01-30T08:42:40;6.03;;;4.13;;
12437;SDS011;6283;51.330;12.374;2024-01-30T08:45:06;6.97;;;4.27;;
12437;SDS011;6283;51.330;12.374;2024-01-30T08:47:31;4.90;;;3.87;;
12437;SDS011;6283;51.330;12.374;2024-01-30T08:49:58;5.73;;;3.97;;
12437;SDS011;6283;51.330;12.374;2024-01-30T08:52:23;7.23;;;4.10;;
12437;SDS011;6283;51.330;12.374;2024-01-30T08:54:49;6.23;;;3.90;;
12437;SDS011;6283;51.330;12.374;2024-01-30T08:57:15;5.70;;;3.93;;
12437;SDS011;6283;51.330;12.374;2024-01-30T08:59:40;6.37;;;4.33;;
12437;SDS011;6283;51.330;12.374;2024-01-30T09:02:06;7.23;;;4.20;;
12437;SDS011;6283;51.330;12.374;2024-01-30T09:04:32;6.50;;;4.20;;
12437;SDS011;6283;51.330;12.374;2024-01-30T09:06:57;6.27;;;4.27;;
12437;SDS011;6283;51.330;12.374;2024-01-30T09:09:23;6.90;;;4.50;;
12437;SDS011;6283;51.330;12.374;2024-01-30T09:11:49;6.97;;;4.33;;
12437;SDS011;6283;51.330;12.374;2024-01-30T09:14:14;7.23;;;4.30;;
12437;SDS011;6283;51.330;12.374;2024-01-30T09:16:40;8.33;;;4.67;;
12437;SDS011;6283;51.330;12.374;2024-01-30T09:19:05;6.27;;;3.97;;
12437;SDS011;6283;51.330;12.374;2024-01-30T09:21:31;6.00;;;4.27;;
12437;SDS011;6283;51.330;12.374;2024-01-30T09:24:01;7.40;;;4.50;;
12437;SDS011;6283;51.330;12.374;2024-01-30T09:26:30;6.23;;;3.90;;
12437;SDS011;6283;51.330;12.374;2024-01-30T09:28:56;7.27;;;4.80;;
12437;SDS011;6283;51.330;12.374;2024-01-30T09:31:21;6.90;;;4.67;;
12437;SDS011;6283;51.330;12.374;2024-01-30T09:33:47;6.73;;;4.13;;
12437;SDS011;6283;51.330;12.374;2024-01-30T09:36:14;8.77;;;4.43;;
12437;SDS011;6283;51.330;12.374;2024-01-30T09:38:44;7.50;;;4.20;;
12437;SDS011;6283;51.330;12.374;2024-01-30T09:41:10;6.33;;;4.10;;
12437;SDS011;6283;51.330;12.374;2024-01-30T09:43:36;6.23;;;4.30;;
12437;SDS011;6283;51.330;12.374;2024-01-30T09:46:03;6.87;;;4.63;;
12437;SDS011;6283;51.330;12.374;2024-01-30T09:48:30;7.67;;;4.47;;
12437;SDS011;6283;51.330;12.374;2024-01-30T09:50:57;6.87;;;4.97;;
12437;SDS011;6283;51.330;12.374;2024-01-30T09:53:23;9.17;;;4.83;;
12437;SDS011;6283;51.330;12.374;2024-01-30T09:55:50;5.27;;;4.33;;
12437;SDS011;6283;51.330;12.374;2024-01-30T09:58:16;8.27;;;4.77;;
12437;SDS011;6283;51.330;12.374;2024-01-30T10:00:41;7.40;;;4.70;;
12437;SDS011;6283;51.330;12.374;2024-01-30T10:03:07;7.50;;;4.90;;
12437;SDS011;6283;51.330;12.374;2024-01-30T10:05:34;8.43;;;4.90;;
12437;SDS011;6283;51.330;12.374;2024-01-30T10:08:05;9.60;;;5.30;;
12437;SDS011;6283;51.330;12.374;2024-01-30T10:10:31;6.57;;;4.27;;
12437;SDS011;6283;51.330;12.374;2024-01-30T10:12:57;6.43;;;4.47;;
12437;SDS011;6283;51.330;12.374;2024-01-30T10:15:23;7.87;;;4.73;;
12437;SDS011;6283;51.330;12.374;2024-01-30T10:17:50;6.93;;;4.33;;
12437;SDS011;6283;51.330;12.374;2024-01-30T10:20:16;6.80;;;4.97;;
12437;SDS011;6283;51.330;12.374;2024-01-30T10:22:42;8.17;;;5.40;;
12437;SDS011;6283;51.330;12.374;2024-01-30T10:25:09;7.40;;;4.40;;
12437;SDS011;6283;51.330;12.374;2024-01-30T10:27:35;7.77;;;4.60;;
12437;SDS011;6283;51.330;12.374;2024-01-30T10:30:01;6.10;;;4.87;;
12437;SDS011;6283;51.330;12.374;2024-01-30T10:32:29;10.40;;;4.77;;
12437;SDS011;6283;51.330;12.374;2024-01-30T10:34:54;7.23;;;4.90;;
12437;SDS011;6283;51.330;12.374;2024-01-30T10:37:20;5.97;;;4.50;;
12437;SDS011;6283;51.330;12.374;2024-01-30T10:39:49;6.83;;;4.17;;
12437;SDS011;6283;51.330;12.374;2024-01-30T10:42:18;6.57;;;4.60;;
12437;SDS011;6283;51.330;12.374;2024-01-30T10:44:57;5.97;;;4.53;;
12437;SDS011;6283;51.330;12.374;2024-01-30T10:47:36;6.10;;;4.43;;
12437;SDS011;6283;51.330;12.374;2024-01-30T10:50:02;7.30;;;4.53;;
12437;SDS011;6283;51.330;12.374;2024-01-30T10:52:28;6.87;;;4.90;;
12437;SDS011;6283;51.330;12.374;2024-01-30T10:54:55;6.67;;;4.67;;
12437;SDS011;6283;51.330;12.374;2024-01-30T10:57:24;9.13;;;5.30;;
12437;SDS011;6283;51.330;12.374;2024-01-30T10:59:51;7.07;;;4.60;;
12437;SDS011;6283;51.330;12.374;2024-01-30T11:02:18;7.93;;;5.78;;
12437;SDS011;6283;51.330;12.374;2024-01-30T11:04:45;8.20;;;5.20;;
12437;SDS011;6283;51.330;12.374;2024-01-30T11:07:17;7.10;;;5.13;;
12437;SDS011;6283;51.330;12.374;2024-01-30T11:09:53;8.70;;;5.10;;
12437;SDS011;6283;51.330;12.374;2024-01-30T11:12:29;6.23;;;5.00;;
12437;SDS011;6283;51.330;12.374;2024-01-30T11:20:19;7.83;;;5.17;;
12437;SDS011;6283;51.330;12.374;2024-01-30T11:22:45;8.90;;;5.27;;
12437;SDS011;6283;51.330;12.374;2024-01-30T11:25:15;7.70;;;5.20;;
12437;SDS011;6283;51.330;12.374;2024-01-30T11:27:44;10.80;;;5.50;;
12437;SDS011;6283;51.330;12.374;2024-01-30T11:30:20;10.40;;;5.10;;
12437;SDS011;6283;51.330;12.374;2024-01-30T11:35:32;9.30;;;5.03;;
12437;SDS011;6283;51.330;12.374;2024-01-30T11:37:59;7.83;;;5.27;;
12437;SDS011;6283;51.330;12.374;2024-01-30T11:40:28;7.77;;;5.20;;
12437;SDS011;6283;51.330;12.374;2024-01-30T11:42:55;9.33;;;5.40;;
12437;SDS011;6283;51.330;12.374;2024-01-30T11:45:23;8.10;;;5.60;;
12437;SDS011;6283;51.330;12.374;2024-01-30T11:47:48;9.97;;;4.80;;
12437;SDS011;6283;51.330;12.374;2024-01-30T11:50:14;8.73;;;6.07;;
12437;SDS011;6283;51.330;12.374;2024-01-30T11:52:40;9.10;;;5.13;;
12437;SDS011;6283;51.330;12.374;2024-01-30T11:55:06;7.83;;;5.30;;
12437;SDS011;6283;51.330;12.374;2024-01-30T11:57:33;9.57;;;5.30;;
12437;SDS011;6283;51.330;12.374;2024-01-30T12:00:00;8.53;;;5.20;;
12437;SDS011;6283;51.330;12.374;2024-01-30T12:02:26;8.57;;;5.60;;
12437;SDS011;6283;51.330;12.374;2024-01-30T12:04:52;6.93;;;4.80;;
12437;SDS011;6283;51.330;12.374;2024-01-30T12:07:17;7.57;;;5.00;;
12437;SDS011;6283;51.330;12.374;2024-01-30T12:09:51;8.17;;;5.17;;
12437;SDS011;6283;51.330;12.374;2024-01-30T12:12:18;6.27;;;4.77;;
12437;SDS011;6283;51.330;12.374;2024-01-30T12:14:43;6.73;;;5.03;;
12437;SDS011;6283;51.330;12.374;2024-01-30T12:17:09;7.27;;;4.80;;
12437;SDS011;6283;51.330;12.374;2024-01-30T12:19:36;5.67;;;4.67;;
12437;SDS011;6283;51.330;12.374;2024-01-30T12:22:01;7.73;;;4.70;;
12437;SDS011;6283;51.330;12.374;2024-01-30T12:24:27;6.90;;;4.90;;
12437;SDS011;6283;51.330;12.374;2024-01-30T12:26:57;8.38;;;5.65;;
12437;SDS011;6283;51.330;12.374;2024-01-30T12:29:23;8.38;;;5.47;;
12437;SDS011;6283;51.330;12.374;2024-01-30T12:31:52;8.45;;;5.05;;
12437;SDS011;6283;51.330;12.374;2024-01-30T12:34:19;7.77;;;4.73;;
12437;SDS011;6283;51.330;12.374;2024-01-30T12:36:46;6.55;;;4.47;;
12437;SDS011;6283;51.330;12.374;2024-01-30T12:39:13;5.05;;;4.25;;
12437;SDS011;6283;51.330;12.374;2024-01-30T12:41:40;8.70;;;4.80;;
12437;SDS011;6283;51.330;12.374;2024-01-30T12:44:05;4.32;;;3.92;;
12437;SDS011;6283;51.330;12.374;2024-01-30T12:46:37;9.70;;;6.00;;
12437;SDS011;6283;51.330;12.374;2024-01-30T12:49:04;7.82;;;4.82;;
12437;SDS011;6283;51.330;12.374;2024-01-30T12:51:30;8.00;;;4.45;;
12437;SDS011;6283;51.330;12.374;2024-01-30T12:53:55;7.72;;;4.70;;
12437;SDS011;6283;51.330;12.374;2024-01-30T12:56:21;6.70;;;4.93;;
12437;SDS011;6283;51.330;12.374;2024-01-30T12:58:47;6.43;;;4.40;;
12437;SDS011;6283;51.330;12.374;2024-01-30T13:01:12;8.60;;;4.93;;
12437;SDS011;6283;51.330;12.374;2024-01-30T13:03:38;5.38;;;3.95;;
12437;SDS011;6283;51.330;12.374;2024-01-30T13:06:04;7.15;;;4.75;;
12437;SDS011;6283;51.330;12.374;2024-01-30T13:08:29;8.13;;;4.78;;
12437;SDS011;6283;51.330;12.374;2024-01-30T13:10:55;5.28;;;4.28;;
12437;SDS011;6283;51.330;12.374;2024-01-30T13:13:21;6.30;;;4.32;;
12437;SDS011;6283;51.330;12.374;2024-01-30T13:15:47;5.20;;;3.90;;
12437;SDS011;6283;51.330;12.374;2024-01-30T13:18:13;9.15;;;5.22;;
12437;SDS011;6283;51.330;12.374;2024-01-30T13:20:38;5.97;;;4.72;;
12437;SDS011;6283;51.330;12.374;2024-01-30T13:23:04;8.32;;;5.10;;
12437;SDS011;6283;51.330;12.374;2024-01-30T13:25:30;5.50;;;4.75;;
12437;SDS011;6283;51.330;12.374;2024-01-30T13:27:55;7.28;;;5.10;;
12437;SDS011;6283;51.330;12.374;2024-01-30T13:30:21;7.03;;;4.70;;
12437;SDS011;6283;51.330;12.374;2024-01-30T13:32:47;8.93;;;6.50;;
12437;SDS011;6283;51.330;12.374;2024-01-30T13:35:12;7.47;;;5.05;;
12437;SDS011;6283;51.330;12.374;2024-01-30T13:37:38;8.13;;;5.80;;
12437;SDS011;6283;51.330;12.374;2024-01-30T13:40:04;8.20;;;4.88;;
12437;SDS011;6283;51.330;12.374;2024-01-30T13:42:34;6.35;;;4.88;;
12437;SDS011;6283;51.330;12.374;2024-01-30T13:44:59;7.82;;;5.63;;
12437;SDS011;6283;51.330;12.374;2024-01-30T13:47:25;7.88;;;5.60;;
12437;SDS011;6283;51.330;12.374;2024-01-30T13:49:50;9.02;;;4.97;;
12437;SDS011;6283;51.330;12.374;2024-01-30T13:52:18;7.75;;;4.78;;
12437;SDS011;6283;51.330;12.374;2024-01-30T13:54:43;6.82;;;5.13;;
12437;SDS011;6283;51.330;12.374;2024-01-30T13:57:09;7.35;;;5.57;;
12437;SDS011;6283;51.330;12.374;2024-01-30T13:59:35;7.38;;;5.65;;
12437;SDS011;6283;51.330;12.374;2024-01-30T14:02:02;8.65;;;5.57;;
12437;SDS011;6283;51.330;12.374;2024-01-30T14:04:28;7.88;;;5.57;;
12437;SDS011;6283;51.330;12.374;2024-01-30T14:06:53;12.45;;;6.25;;
12437;SDS011;6283;51.330;12.374;2024-01-30T14:09:19;8.07;;;5.40;;
12437;SDS011;6283;51.330;12.374;2024-01-30T14:11:46;7.85;;;5.53;;
12437;SDS011;6283;51.330;12.374;2024-01-30T14:14:11;8.73;;;6.00;;
12437;SDS011;6283;51.330;12.374;2024-01-30T14:16:37;6.78;;;4.97;;
12437;SDS011;6283;51.330;12.374;2024-01-30T14:19:03;7.28;;;5.13;;
12437;SDS011;6283;51.330;12.374;2024-01-30T14:21:28;5.57;;;4.88;;
12437;SDS011;6283;51.330;12.374;2024-01-30T14:23:54;10.73;;;5.45;;
12437;SDS011;6283;51.330;12.374;2024-01-30T14:26:19;8.40;;;5.45;;
12437;SDS011;6283;51.330;12.374;2024-01-30T14:28:46;7.53;;;5.22;;
12437;SDS011;6283;51.330;12.374;2024-01-30T14:31:12;7.25;;;4.65;;
12437;SDS011;6283;51.330;12.374;2024-01-30T14:33:38;6.25;;;4.80;;
12437;SDS011;6283;51.330;12.374;2024-01-30T14:36:04;6.90;;;4.95;;
12437;SDS011;6283;51.330;12.374;2024-01-30T14:38:30;8.57;;;5.10;;
12437;SDS011;6283;51.330;12.374;2024-01-30T14:40:55;10.68;;;5.13;;
12437;SDS011;6283;51.330;12.374;2024-01-30T14:43:21;6.33;;;5.03;;
12437;SDS011;6283;51.330;12.374;2024-01-30T14:45:47;8.20;;;5.23;;
12437;SDS011;6283;51.330;12.374;2024-01-30T14:48:14;8.60;;;6.13;;
12437;SDS011;6283;51.330;12.374;2024-01-30T14:50:40;9.87;;;5.57;;